Time;durP1;ratioP1;P1;durP2;ratioP2;P2;SDS_P1;SDS_P2;PMS_P1;PMS_P2;Temp;Humidity;BMP_temperature;BMP_pressure;BME280_temperature;BME280_humidity;BME280_pressure;Samples;Min_cycle;Max_cycle;Signal;HPM_P1;HPM_P2
2022/04/01 03:01:07;;;;;;;11.73;10.27;;;4.50;99.90;;;;;;5669789;22;20236;-79
2022/04/01 03:03:33;;;;;;;10.50;9.70;;;4.40;99.90;;;;;;4975085;28;20272;-79
2022/04/01 03:05:58;;;;;;;10.90;10.10;;;4.40;99.90;;;;;;4975674;28;20621;-78
2022/04/01 03:08:26;;;;;;;11.10;10.20;;;4.40;99.90;;;;;;4958984;28;20181;-79
2022/04/01 03:10:53;;;;;;;12.17;11.17;;;4.50;99.90;;;;;;4975419;28;20201;-79
2022/04/01 03:13:18;;;;;;;11.13;10.13;;;4.50;99.90;;;;;;4958432;28;20213;-79
2022/04/01 03:15:47;;;;;;;12.40;11.13;;;4.50;99.90;;;;;;4976641;28;20247;-77
2022/04/01 03:18:13;;;;;;;10.50;9.53;;;4.50;99.90;;;;;;4977361;28;20185;-78
2022/04/01 03:20:39;;;;;;;10.87;9.77;;;4.60;99.90;;;;;;4959385;28;20217;-78
2022/04/01 03:23:06;;;;;;;11.73;10.73;;;4.50;99.90;;;;;;4962142;28;20184;-78
2022/04/01 03:25:32;;;;;;;10.10;9.30;;;4.50;99.90;;;;;;4959471;28;20186;-77
2022/04/01 03:28:00;;;;;;;11.30;10.30;;;4.50;99.90;;;;;;4957973;28;20733;-77
2022/04/01 03:30:27;;;;;;;11.27;10.40;;;4.60;99.90;;;;;;4958270;28;20605;-77
2022/04/01 03:32:53;;;;;;;13.67;12.70;;;4.50;99.90;;;;;;4975506;28;20239;-75
2022/04/01 03:35:19;;;;;;;12.90;11.90;;;4.60;99.90;;;;;;4958416;28;20593;-76
2022/04/01 03:37:46;;;;;;;11.60;10.60;;;4.60;99.90;;;;;;4957806;28;20181;-77
2022/04/01 03:40:16;;;;;;;11.80;10.83;;;4.50;99.90;;;;;;4975066;28;20247;-78
2022/04/01 03:42:46;;;;;;;12.97;11.87;;;4.50;99.90;;;;;;4973750;28;20205;-74
2022/04/01 03:45:13;;;;;;;12.23;11.13;;;4.60;99.90;;;;;;4956429;28;20177;-75
2022/04/01 03:48:06;;;;;;;13.20;12.13;;;4.50;99.90;;;;;;4957048;28;20181;-78
2022/04/01 03:50:33;;;;;;;14.63;13.57;;;4.50;99.90;;;;;;4959083;28;20209;-78
2022/04/01 03:53:07;;;;;;;13.03;12.13;;;4.50;99.90;;;;;;4959796;28;20264;-77
2022/04/01 03:55:36;;;;;;;11.97;11.17;;;4.50;99.90;;;;;;4977457;28;20284;-76
2022/04/01 03:58:14;;;;;;;11.23;10.33;;;4.50;99.90;;;;;;4960885;28;20658;-77
2022/04/01 04:00:43;;;;;;;11.27;10.37;;;4.60;99.90;;;;;;4961253;28;20227;-75
2022/04/01 04:03:10;;;;;;;11.73;10.83;;;4.50;99.90;;;;;;4979373;28;20184;-76
2022/04/01 04:05:37;;;;;;;10.30;9.43;;;4.50;99.90;;;;;;4957713;28;20201;-76
2022/04/01 04:08:06;;;;;;;11.47;10.57;;;4.50;99.90;;;;;;4974259;28;20237;-76
2022/04/01 04:10:34;;;;;;;10.63;9.83;;;4.50;99.90;;;;;;4956899;28;20266;-76
2022/04/01 04:13:04;;;;;;;9.53;8.83;;;4.50;99.90;;;;;;4955924;28;20192;-76
2022/04/01 04:15:41;;;;;;;9.97;9.17;;;4.40;99.90;;;;;;4973498;28;20192;-76
2022/04/01 04:18:14;;;;;;;12.73;9.30;;;4.40;99.90;;;;;;4955917;28;20660;-76
2022/04/01 04:20:50;;;;;;;9.97;9.27;;;4.30;99.90;;;;;;4973195;28;20242;-76
2022/04/01 04:23:34;;;;;;;9.63;8.93;;;4.30;99.90;;;;;;4956052;28;20215;-76
2022/04/01 04:26:11;;;;;;;10.43;9.60;;;4.20;99.90;;;;;;4973296;28;20304;-76
2022/04/01 04:28:42;;;;;;;11.80;10.90;;;4.10;99.90;;;;;;4951379;28;20203;-76
2022/04/01 04:31:09;;;;;;;16.57;15.33;;;4.10;99.90;;;;;;4973316;28;20303;-76
2022/04/01 04:33:43;;;;;;;20.47;19.03;;;4.00;99.90;;;;;;4973049;28;20315;-76
2022/04/01 04:36:10;;;;;;;23.33;21.77;;;4.00;99.90;;;;;;4973865;28;20185;-78
2022/04/01 04:38:38;;;;;;;34.27;32.20;;;4.00;99.90;;;;;;4955539;28;20532;-76
2022/04/01 04:41:08;;;;;;;30.33;28.50;;;4.00;99.90;;;;;;4971636;28;20213;-76
2022/04/01 04:43:40;;;;;;;27.20;25.50;;;4.00;99.90;;;;;;4972664;28;20185;-75
2022/04/01 04:46:08;;;;;;;34.37;32.33;;;4.00;99.90;;;;;;4954876;28;20232;-75
2022/04/01 04:48:35;;;;;;;35.07;32.90;;;4.00;99.90;;;;;;4952382;28;20587;-76
2022/04/01 04:51:03;;;;;;;34.97;32.87;;;4.00;99.90;;;;;;4972630;28;20212;-76
2022/04/01 04:53:31;;;;;;;33.40;31.40;;;4.00;99.90;;;;;;4963996;28;20654;-76
2022/04/01 04:56:04;;;;;;;31.17;29.33;;;4.00;99.90;;;;;;4955136;28;20192;-76
2022/04/01 04:58:39;;;;;;;30.87;29.10;;;4.00;99.90;;;;;;4954515;28;20185;-75
2022/04/01 05:01:24;;;;;;;29.83;27.93;;;3.90;99.90;;;;;;4954599;28;20306;-76
2022/04/01 05:04:26;;;;;;;29.60;27.67;;;3.90;99.90;;;;;;4952355;29;20185;-76
2022/04/01 05:07:06;;;;;;;28.03;26.23;;;3.90;99.90;;;;;;4954202;29;20181;-76
2022/04/01 05:09:59;;;;;;;27.70;25.90;;;4.00;99.90;;;;;;4971173;28;20255;-76
2022/04/01 05:12:33;;;;;;;25.00;23.50;;;3.90;99.90;;;;;;4954668;28;20696;-75
2022/04/01 05:14:58;;;;;;;26.97;25.17;;;3.90;99.90;;;;;;4955227;28;20206;-74
2022/04/01 05:17:36;;;;;;;30.80;29.03;;;3.90;99.90;;;;;;4950322;29;20243;-76
2022/04/01 05:20:11;;;;;;;31.23;29.23;;;3.80;99.90;;;;;;4950248;29;20211;-76
2022/04/01 05:22:50;;;;;;;27.97;26.37;;;3.80;99.90;;;;;;4968773;28;20176;-76
2022/04/01 05:25:24;;;;;;;24.77;23.37;;;3.90;99.90;;;;;;4972793;28;20618;-76
2022/04/01 05:27:58;;;;;;;25.00;23.43;;;3.90;99.90;;;;;;4954743;28;20188;-76
2022/04/01 05:30:28;;;;;;;26.43;24.33;;;3.90;99.90;;;;;;4955174;28;20196;-77
2022/04/01 05:33:00;;;;;;;34.50;32.40;;;3.90;99.90;;;;;;4955425;28;20181;-76
2022/04/01 05:35:30;;;;;;;31.60;29.57;;;3.90;99.90;;;;;;4951858;28;20644;-76
2022/04/01 05:37:59;;;;;;;28.67;26.97;;;3.90;99.90;;;;;;4954791;28;20184;-76
2022/04/01 05:40:28;;;;;;;30.37;28.40;;;3.90;99.90;;;;;;4972103;28;20688;-76
2022/04/01 05:42:59;;;;;;;33.83;31.70;;;3.90;99.90;;;;;;4955026;28;20196;-76
2022/04/01 05:45:27;;;;;;;32.33;30.30;;;3.80;99.90;;;;;;4955472;28;20177;-76
2022/04/01 05:47:54;;;;;;;39.23;36.97;;;3.80;99.90;;;;;;4971783;28;20177;-76
2022/04/01 05:50:22;;;;;;;29.13;27.33;;;3.80;99.90;;;;;;4971469;28;20184;-76
2022/04/01 05:52:49;;;;;;;31.23;29.40;;;3.80;99.90;;;;;;4957340;28;20181;-74
2022/04/01 05:55:21;;;;;;;32.37;30.47;;;3.80;99.90;;;;;;4959316;28;20188;-75
2022/04/01 05:57:47;;;;;;;27.70;26.00;;;3.80;99.90;;;;;;4975937;28;20209;-75
2022/04/01 06:00:13;;;;;;;28.60;26.80;;;3.80;99.90;;;;;;4975732;28;20208;-75
2022/04/01 06:02:42;;;;;;;29.30;27.30;;;3.80;99.90;;;;;;4958367;28;20207;-76
2022/04/01 06:05:38;;;;;;;29.93;28.13;;;3.80;99.90;;;;;;4957961;28;20185;-76
2022/04/01 06:08:16;;;;;;;25.87;24.37;;;3.80;99.90;;;;;;4958257;28;20203;-76
2022/04/01 06:11:22;;;;;;;27.80;26.13;;;3.80;99.90;;;;;;4958148;28;20207;-75
2022/04/01 06:14:11;;;;;;;22.90;21.43;;;3.80;99.90;;;;;;4959690;28;20259;-77
2022/04/01 06:16:52;;;;;;;31.53;29.63;;;3.80;99.90;;;;;;4959015;28;20271;-77
2022/04/01 06:19:23;;;;;;;53.83;50.70;;;3.80;99.90;;;;;;4975400;28;20205;-76
2022/04/01 06:22:01;;;;;;;21.13;19.73;;;3.80;99.90;;;;;;4977762;28;20204;-74
2022/04/01 06:24:59;;;;;;;28.53;26.83;;;3.80;99.90;;;;;;4978508;28;20271;-76
2022/04/01 06:27:41;;;;;;;25.23;23.60;;;3.80;99.90;;;;;;4958614;28;20188;-76
2022/04/01 06:30:12;;;;;;;27.47;25.77;;;3.80;99.90;;;;;;4957838;28;20561;-76
2022/04/01 06:33:06;;;;;;;31.70;29.70;;;3.80;99.90;;;;;;4958102;28;20276;-77
2022/04/01 06:35:50;;;;;;;26.90;25.10;;;3.90;99.90;;;;;;4959236;28;20185;-77
2022/04/01 06:38:39;;;;;;;22.03;20.50;;;3.80;99.90;;;;;;4959414;28;20192;-77
2022/04/01 06:41:28;;;;;;;23.40;21.93;;;3.90;99.90;;;;;;4958162;28;20216;-76
2022/04/01 06:43:54;;;;;;;26.47;24.67;;;3.90;99.90;;;;;;4957550;28;20272;-76
2022/04/01 06:46:20;;;;;;;33.90;31.70;;;3.90;99.90;;;;;;4976004;28;20330;-77
2022/04/01 06:48:46;;;;;;;31.73;29.77;;;3.90;99.90;;;;;;4975910;28;20187;-76
2022/04/01 06:51:14;;;;;;;34.87;32.83;;;3.80;99.90;;;;;;4978729;28;20197;-76
2022/04/01 06:53:41;;;;;;;37.20;35.07;;;3.80;99.90;;;;;;4980131;28;20185;-76
2022/04/01 06:56:09;;;;;;;30.73;28.83;;;3.90;99.90;;;;;;4979064;28;20219;-77
2022/04/01 06:58:35;;;;;;;27.13;25.43;;;4.00;99.90;;;;;;4978748;28;20196;-77
2022/04/01 07:01:03;;;;;;;22.60;21.00;;;4.00;99.90;;;;;;4961354;28;20371;-77
2022/04/01 07:03:30;;;;;;;29.87;27.97;;;4.00;99.90;;;;;;4957535;28;20308;-77
2022/04/01 07:05:58;;;;;;;35.50;33.30;;;4.00;99.90;;;;;;4958669;28;20185;-73
2022/04/01 07:08:24;;;;;;;31.80;29.83;;;3.90;99.90;;;;;;4974522;28;20181;-73
2022/04/01 07:10:50;;;;;;;31.07;29.17;;;3.90;99.90;;;;;;4974533;28;20208;-73
2022/04/01 07:13:16;;;;;;;38.40;36.10;;;4.00;99.90;;;;;;4974271;28;20181;-73
2022/04/01 07:15:42;;;;;;;36.07;33.80;;;4.00;99.90;;;;;;4974745;28;20807;-73
2022/04/01 07:18:08;;;;;;;32.83;30.73;;;3.90;99.90;;;;;;4957153;28;20274;-73
2022/04/01 07:20:34;;;;;;;32.90;30.83;;;4.00;99.90;;;;;;4959497;28;20665;-73
2022/04/01 07:23:01;;;;;;;32.87;30.80;;;4.00;99.90;;;;;;4975123;28;20185;-73
2022/04/01 07:25:27;;;;;;;31.63;29.43;;;4.00;99.90;;;;;;4974164;28;20227;-73
2022/04/01 07:27:54;;;;;;;35.13;32.83;;;4.00;99.90;;;;;;4956805;28;20185;-73
2022/04/01 07:30:20;;;;;;;76.63;72.47;;;4.00;99.90;;;;;;4974247;28;20216;-73
2022/04/01 07:32:50;;;;;;;32.77;30.73;;;4.00;99.90;;;;;;4956798;28;20244;-73
2022/04/01 07:35:16;;;;;;;33.10;31.00;;;4.10;99.90;;;;;;4974377;28;20185;-73
2022/04/01 07:37:42;;;;;;;39.37;36.93;;;4.10;99.90;;;;;;4956459;28;20185;-74
2022/04/01 07:40:10;;;;;;;29.80;27.70;;;4.20;99.90;;;;;;4956409;28;20205;-73
2022/04/01 07:42:38;;;;;;;35.20;32.63;;;4.20;99.90;;;;;;4973907;28;20197;-73
2022/04/01 07:45:04;;;;;;;36.47;33.93;;;4.30;99.90;;;;;;4956622;28;20258;-73
2022/04/01 07:47:32;;;;;;;52.97;49.87;;;4.30;99.90;;;;;;4956371;28;20181;-73
2022/04/01 07:50:00;;;;;;;18.70;17.37;;;4.30;99.90;;;;;;4973894;28;20255;-73
2022/04/01 07:52:27;;;;;;;10.83;9.90;;;4.30;99.90;;;;;;4973655;28;20565;-73
2022/04/01 07:54:53;;;;;;;13.23;12.03;;;4.30;99.90;;;;;;4974035;28;20801;-72
2022/04/01 07:57:20;;;;;;;13.40;12.30;;;4.20;99.90;;;;;;4956196;28;20208;-72
2022/04/01 07:59:47;;;;;;;15.07;13.83;;;4.30;99.90;;;;;;4973837;28;20201;-73
2022/04/01 08:02:13;;;;;;;15.43;14.30;;;4.40;99.90;;;;;;4956124;28;20688;-72
2022/04/01 08:04:39;;;;;;;16.83;15.50;;;4.40;99.90;;;;;;4956311;28;20646;-72
2022/04/01 08:07:05;;;;;;;11.60;10.60;;;4.40;99.90;;;;;;4973238;28;20192;-72
2022/04/01 08:09:33;;;;;;;14.83;13.63;;;4.30;99.90;;;;;;4974324;28;20782;-72
2022/04/01 08:12:01;;;;;;;13.70;12.60;;;4.20;99.90;;;;;;4956371;28;20744;-72
2022/04/01 08:14:27;;;;;;;13.20;12.10;;;4.10;99.90;;;;;;4973492;28;20189;-73
2022/04/01 08:16:54;;;;;;;12.80;11.60;;;4.20;99.90;;;;;;4955838;28;20189;-72
2022/04/01 08:19:22;;;;;;;13.00;11.87;;;4.20;99.90;;;;;;4972797;28;20288;-72
2022/04/01 08:21:49;;;;;;;12.43;11.33;;;4.20;99.90;;;;;;4955721;28;20197;-71
2022/04/01 08:24:16;;;;;;;12.60;11.50;;;4.30;99.90;;;;;;4956102;28;20185;-72
2022/04/01 08:26:42;;;;;;;11.30;10.40;;;4.30;99.90;;;;;;4955771;28;20642;-72
2022/04/01 08:29:08;;;;;;;13.47;12.37;;;4.30;99.90;;;;;;4972859;28;20181;-72
2022/04/01 08:31:34;;;;;;;13.30;12.30;;;4.20;99.90;;;;;;4955474;28;20251;-72
2022/04/01 08:34:00;;;;;;;14.63;13.33;;;4.20;99.90;;;;;;4955370;28;20181;-72
2022/04/01 08:36:26;;;;;;;13.40;12.27;;;4.20;99.90;;;;;;4955775;28;20432;-72
2022/04/01 08:38:52;;;;;;;14.83;13.37;;;4.10;99.90;;;;;;4972438;28;20181;-72
2022/04/01 08:41:20;;;;;;;15.27;13.83;;;4.10;99.90;;;;;;4972692;28;20224;-72
2022/04/01 08:43:48;;;;;;;17.33;15.43;;;4.10;99.90;;;;;;4972914;28;20653;-73
2022/04/01 08:46:14;;;;;;;25.87;20.13;;;4.10;99.90;;;;;;4972686;28;20181;-72
2022/04/01 08:48:41;;;;;;;14.60;13.13;;;4.10;99.90;;;;;;4972224;28;20181;-72
2022/04/01 08:51:07;;;;;;;26.37;22.97;;;4.20;99.90;;;;;;4973032;28;20680;-72
2022/04/01 08:53:38;;;;;;;21.13;19.47;;;4.30;99.90;;;;;;4949576;29;20693;-72
2022/04/01 08:56:05;;;;;;;12.70;11.53;;;4.30;99.90;;;;;;4972001;28;20328;-72
2022/04/01 08:58:33;;;;;;;11.83;10.83;;;4.30;99.90;;;;;;4979033;28;20194;-72
2022/04/01 09:01:00;;;;;;;13.07;11.87;;;4.30;99.90;;;;;;4967270;28;20338;-71
2022/04/01 09:03:27;;;;;;;12.90;11.70;;;4.30;99.90;;;;;;4955325;28;20192;-71
2022/04/01 09:05:58;;;;;;;12.50;11.40;;;4.30;99.90;;;;;;4972870;28;20178;-72
2022/04/01 09:08:30;;;;;;;13.30;12.23;;;4.20;99.90;;;;;;4972050;28;20220;-72
2022/04/01 09:11:04;;;;;;;13.23;12.13;;;4.20;99.90;;;;;;4955392;28;20205;-72
2022/04/01 09:13:50;;;;;;;13.13;12.03;;;4.20;99.90;;;;;;4955036;28;20563;-72
2022/04/01 09:16:32;;;;;;;13.53;12.33;;;4.30;99.90;;;;;;4954820;28;20189;-72
2022/04/01 09:19:01;;;;;;;13.13;12.03;;;4.30;99.90;;;;;;4950871;29;20264;-73
2022/04/01 09:21:29;;;;;;;15.23;13.93;;;4.40;99.90;;;;;;4950346;29;20304;-72
2022/04/01 09:23:55;;;;;;;13.00;11.80;;;4.40;99.90;;;;;;4951380;28;20189;-71
2022/04/01 09:26:28;;;;;;;13.87;12.77;;;4.30;99.90;;;;;;4951879;28;20174;-73
2022/04/01 09:28:58;;;;;;;12.93;11.83;;;4.30;99.90;;;;;;4954521;28;20181;-72
2022/04/01 09:31:29;;;;;;;13.30;12.27;;;4.30;99.90;;;;;;4955184;28;20197;-72
2022/04/01 09:33:55;;;;;;;12.93;11.83;;;4.30;99.90;;;;;;4972223;28;20184;-72
2022/04/01 09:36:26;;;;;;;13.60;12.40;;;4.30;99.90;;;;;;4971852;28;20185;-72
2022/04/01 09:38:57;;;;;;;12.73;11.73;;;4.30;99.90;;;;;;4971787;28;20732;-72
2022/04/01 09:41:46;;;;;;;14.47;13.27;;;4.40;99.90;;;;;;4971875;28;20209;-72
2022/04/01 09:44:17;;;;;;;18.53;17.20;;;4.30;99.90;;;;;;4953596;28;20192;-72
2022/04/01 09:46:46;;;;;;;16.93;15.70;;;4.20;99.90;;;;;;4954885;28;20622;-73
2022/04/01 09:49:36;;;;;;;13.47;12.17;;;4.20;99.90;;;;;;4955586;28;20669;-72
2022/04/01 09:52:07;;;;;;;13.60;12.50;;;4.20;99.90;;;;;;4955611;28;20215;-73
2022/04/01 09:54:33;;;;;;;12.83;11.40;;;4.20;99.90;;;;;;4964129;28;20204;-73
2022/04/01 09:56:59;;;;;;;12.50;11.40;;;4.30;99.90;;;;;;4954012;28;20276;-73
2022/04/01 09:59:31;;;;;;;11.70;10.80;;;4.30;99.90;;;;;;4970902;28;20216;-73
2022/04/01 10:01:58;;;;;;;11.83;10.80;;;4.40;99.90;;;;;;4971157;28;20236;-73
2022/04/01 10:04:24;;;;;;;13.10;12.10;;;4.30;99.90;;;;;;4954104;28;20231;-73
2022/04/01 10:06:50;;;;;;;15.90;14.70;;;4.30;99.90;;;;;;4954109;28;20192;-74
2022/04/01 10:09:18;;;;;;;17.57;16.27;;;4.30;99.90;;;;;;4953971;28;20653;-74
2022/04/01 10:11:45;;;;;;;13.87;12.67;;;4.20;99.90;;;;;;4954237;28;20836;-73
2022/04/01 10:14:26;;;;;;;15.17;13.97;;;4.30;99.90;;;;;;4954123;28;20368;-73
2022/04/01 10:17:00;;;;;;;17.93;16.73;;;4.10;99.90;;;;;;4970996;28;20184;-72
2022/04/01 10:19:32;;;;;;;17.83;16.63;;;4.10;99.90;;;;;;4971223;28;20685;-74
2022/04/01 10:21:59;;;;;;;14.77;13.67;;;4.00;99.90;;;;;;4971605;28;20243;-73
2022/04/01 10:24:52;;;;;;;12.83;11.73;;;3.90;99.90;;;;;;4971400;28;20610;-73
2022/04/01 10:27:42;;;;;;;11.97;10.87;;;4.00;99.90;;;;;;4934797;29;20186;-72
2022/04/01 10:30:11;;;;;;;11.60;10.70;;;4.10;99.90;;;;;;4934659;29;20237;-73
2022/04/01 10:32:39;;;;;;;10.60;9.70;;;4.20;99.90;;;;;;4934939;29;20429;-72
2022/04/01 10:35:07;;;;;;;11.43;10.53;;;4.30;99.90;;;;;;4950987;29;20185;-73
2022/04/01 10:37:34;;;;;;;11.57;10.67;;;4.40;99.90;;;;;;4951674;28;20284;-72
2022/04/01 10:40:16;;;;;;;11.93;10.93;;;4.50;99.90;;;;;;4951061;28;20735;-72
2022/04/01 10:42:43;;;;;;;11.43;10.53;;;4.60;99.90;;;;;;4975019;28;20192;-74
2022/04/01 10:45:18;;;;;;;10.27;9.57;;;4.70;99.90;;;;;;4974629;28;20276;-72
2022/04/01 10:53:48;;;;;;;18.47;17.43;;;4.50;99.90;;;;;;4974091;28;20347;-73
2022/04/01 10:56:23;;;;;;;19.27;17.90;;;4.40;99.90;;;;;;4974794;28;20185;-73
2022/04/01 10:59:16;;;;;;;17.50;16.40;;;4.50;99.90;;;;;;4956174;28;20286;-73
2022/04/01 11:01:54;;;;;;;15.53;14.60;;;4.50;99.90;;;;;;4956922;28;20225;-73
2022/04/01 11:04:19;;;;;;;15.17;14.27;;;4.60;99.90;;;;;;4957519;28;20259;-72
2022/04/01 11:07:08;;;;;;;10.97;10.27;;;4.60;99.90;;;;;;4973925;28;20177;-74
2022/04/01 11:09:38;;;;;;;10.03;9.30;;;4.50;99.90;;;;;;4974948;28;20383;-73
2022/04/01 11:12:19;;;;;;;10.60;9.83;;;4.50;99.90;;;;;;4955479;28;20671;-76
2022/04/01 11:14:56;;;;;;;12.50;11.70;;;4.50;99.90;;;;;;4948849;28;20181;-75
2022/04/01 11:17:34;;;;;;;10.47;9.87;;;4.40;99.90;;;;;;4956535;28;20185;-75
2022/04/01 11:20:13;;;;;;;10.30;9.70;;;4.40;99.90;;;;;;4956786;28;20201;-76
2022/04/01 11:22:39;;;;;;;8.87;8.37;;;4.40;99.90;;;;;;4974112;28;20250;-75
2022/04/01 11:25:07;;;;;;;7.93;7.33;;;4.30;99.90;;;;;;4957033;28;20661;-76
2022/04/01 11:27:34;;;;;;;8.50;8.00;;;4.20;99.90;;;;;;4956448;28;20684;-76
2022/04/01 11:30:14;;;;;;;11.70;11.00;;;4.10;99.90;;;;;;4974299;28;20184;-76
2022/04/01 11:32:45;;;;;;;13.03;12.23;;;4.10;99.90;;;;;;4974312;28;20208;-75
2022/04/01 11:35:12;;;;;;;11.87;11.17;;;4.20;99.90;;;;;;4956764;28;20192;-75
2022/04/01 11:37:44;;;;;;;9.07;8.47;;;4.20;99.90;;;;;;4956069;28;20195;-75
2022/04/01 11:40:25;;;;;;;9.50;9.00;;;4.00;99.90;;;;;;4956637;28;20299;-75
2022/04/01 11:42:57;;;;;;;12.33;11.73;;;4.00;99.90;;;;;;4956540;28;20228;-75
2022/04/01 11:45:24;;;;;;;9.53;8.63;;;3.90;99.90;;;;;;4961901;28;20276;-76
2022/04/01 11:47:50;;;;;;;11.70;11.10;;;3.90;99.90;;;;;;4955836;28;20185;-76
2022/04/01 11:50:19;;;;;;;13.00;12.30;;;4.00;99.90;;;;;;4956119;28;20189;-75
2022/04/01 11:52:54;;;;;;;11.77;11.07;;;3.90;99.90;;;;;;4956261;28;20551;-75
2022/04/01 11:55:26;;;;;;;14.27;13.57;;;4.00;99.90;;;;;;4973903;28;20312;-75
2022/04/01 11:57:54;;;;;;;11.33;10.70;;;3.90;99.90;;;;;;4957186;28;20556;-76
2022/04/01 12:00:22;;;;;;;13.43;12.73;;;4.10;99.90;;;;;;4957984;28;20216;-75
2022/04/01 12:02:53;;;;;;;12.80;11.97;;;4.10;99.90;;;;;;4956944;28;20226;-75
2022/04/01 12:05:20;;;;;;;11.83;11.10;;;4.10;99.90;;;;;;4956617;28;20608;-76
2022/04/01 12:10:49;;;;;;;9.90;9.30;;;4.00;99.90;;;;;;4973501;28;20584;-75
2022/04/01 12:13:15;;;;;;;11.43;10.70;;;4.00;99.90;;;;;;4973289;28;20183;-75
2022/04/01 12:15:44;;;;;;;11.17;10.47;;;3.90;99.90;;;;;;4973643;28;20207;-75
2022/04/01 12:18:13;;;;;;;10.07;9.37;;;3.80;99.90;;;;;;4973337;28;20185;-76
2022/04/01 12:20:41;;;;;;;11.93;11.13;;;3.80;99.90;;;;;;4956176;28;20280;-76
2022/04/01 12:23:07;;;;;;;11.40;10.60;;;3.80;99.90;;;;;;4973346;28;20695;-75
2022/04/01 12:25:37;;;;;;;11.27;10.50;;;3.90;99.90;;;;;;4955854;28;20188;-75
2022/04/01 12:28:09;;;;;;;11.90;11.07;;;4.00;99.90;;;;;;4955480;28;20188;-75
2022/04/01 12:30:52;;;;;;;18.27;17.20;;;3.90;99.90;;;;;;4956032;28;20232;-75
2022/04/01 12:33:24;;;;;;;15.67;14.57;;;3.90;99.90;;;;;;4956130;28;20218;-75
2022/04/01 12:36:04;;;;;;;14.03;13.10;;;3.90;99.90;;;;;;4956457;28;20279;-75
2022/04/01 12:38:35;;;;;;;12.00;11.17;;;4.00;99.90;;;;;;4976449;28;20198;-75
2022/04/01 12:41:06;;;;;;;11.53;10.73;;;4.10;99.90;;;;;;4959371;28;20220;-74
2022/04/01 12:43:54;;;;;;;16.33;14.63;;;4.10;99.90;;;;;;4958734;28;20177;-74
2022/04/01 12:46:22;;;;;;;14.50;13.20;;;4.10;99.90;;;;;;4976450;28;20191;-75
2022/04/01 12:48:52;;;;;;;15.97;14.43;;;4.10;99.90;;;;;;4976962;28;20273;-75
2022/04/01 12:51:25;;;;;;;13.33;12.23;;;4.10;99.90;;;;;;4973842;28;20288;-75
2022/04/01 12:53:56;;;;;;;13.63;12.63;;;4.20;99.90;;;;;;4973263;28;20556;-75
2022/04/01 12:56:25;;;;;;;12.10;11.10;;;4.30;99.90;;;;;;4972865;28;20297;-74
2022/04/01 12:58:56;;;;;;;14.70;13.67;;;4.20;99.90;;;;;;4955331;28;20183;-75
2022/04/01 13:01:27;;;;;;;11.93;11.03;;;4.20;99.90;;;;;;4972099;28;20221;-76
2022/04/01 13:03:55;;;;;;;9.33;8.63;;;4.00;99.90;;;;;;4966435;28;20180;-75
2022/04/01 13:06:23;;;;;;;11.57;10.57;;;3.70;99.90;;;;;;4992177;28;20191;-74
2022/04/01 13:09:07;;;;;;;11.17;10.17;;;3.50;99.90;;;;;;4972458;28;20705;-75
2022/04/01 13:11:37;;;;;;;13.90;12.80;;;3.60;99.90;;;;;;4972534;28;20212;-73
2022/04/01 13:14:22;;;;;;;15.23;13.93;;;3.60;99.90;;;;;;4972541;28;20185;-73
2022/04/01 13:16:51;;;;;;;13.60;12.43;;;3.70;99.90;;;;;;4972440;28;20192;-72
2022/04/01 13:19:23;;;;;;;16.07;14.67;;;3.60;99.90;;;;;;4972130;28;20184;-72
2022/04/01 13:21:51;;;;;;;16.73;15.23;;;3.60;99.90;;;;;;4954698;28;20290;-71
2022/04/01 13:24:26;;;;;;;15.63;14.33;;;3.60;99.90;;;;;;4954759;28;20192;-71
2022/04/01 13:26:52;;;;;;;15.57;14.27;;;3.60;99.90;;;;;;4954439;28;20180;-72
2022/04/01 13:29:19;;;;;;;14.90;13.60;;;3.60;99.90;;;;;;4971791;28;20177;-72
2022/04/01 13:31:45;;;;;;;15.20;13.90;;;3.70;99.90;;;;;;4971916;28;20605;-73
2022/04/01 13:34:11;;;;;;;16.47;15.10;;;3.80;99.90;;;;;;4954278;28;20181;-72
2022/04/01 13:36:38;;;;;;;15.07;13.87;;;3.70;99.90;;;;;;4971876;28;20271;-72
2022/04/01 13:39:05;;;;;;;16.17;14.60;;;3.60;99.90;;;;;;4954346;28;20612;-72
2022/04/01 13:41:31;;;;;;;14.87;13.37;;;3.60;99.90;;;;;;4971637;28;20209;-72
2022/04/01 13:43:58;;;;;;;15.13;13.67;;;3.50;99.90;;;;;;4971788;28;20184;-72
2022/04/01 13:46:24;;;;;;;15.77;14.37;;;3.50;99.90;;;;;;4972722;28;20185;-72
2022/04/01 13:48:52;;;;;;;17.10;15.60;;;3.50;99.90;;;;;;4970798;28;20189;-72
2022/04/01 13:51:18;;;;;;;15.87;14.47;;;3.50;99.90;;;;;;4954799;28;20326;-72
2022/04/01 13:53:44;;;;;;;16.33;14.77;;;3.70;99.90;;;;;;4971825;28;20653;-73
2022/04/01 13:56:09;;;;;;;16.00;14.60;;;3.70;99.90;;;;;;4954649;28;20239;-74
2022/04/01 13:58:36;;;;;;;14.80;13.53;;;3.70;99.90;;;;;;4954306;28;20211;-71
2022/04/01 14:01:03;;;;;;;14.47;13.17;;;3.80;99.90;;;;;;4953890;28;20228;-72
2022/04/01 14:03:29;;;;;;;12.30;11.20;;;3.80;99.90;;;;;;4935237;29;20178;-73
2022/04/01 14:05:55;;;;;;;13.47;12.10;;;3.80;99.90;;;;;;4935397;29;20189;-72
2022/04/01 14:08:20;;;;;;;13.50;12.30;;;3.70;99.90;;;;;;4934822;29;20174;-72
2022/04/01 14:10:48;;;;;;;15.73;12.70;;;3.70;99.90;;;;;;4952039;28;20767;-72
2022/04/01 14:13:14;;;;;;;15.40;13.80;;;3.70;99.90;;;;;;4936684;29;20185;-72
2022/04/01 14:15:40;;;;;;;14.60;13.30;;;3.70;99.90;;;;;;4963584;28;20271;-72
2022/04/01 14:18:06;;;;;;;13.13;11.63;;;3.90;99.90;;;;;;4957645;28;20188;-72
2022/04/01 14:20:32;;;;;;;13.40;12.00;;;4.00;99.90;;;;;;4975541;28;20208;-72
2022/04/01 14:22:59;;;;;;;13.73;12.53;;;4.10;99.90;;;;;;4957781;28;20177;-71
2022/04/01 14:25:25;;;;;;;14.90;13.50;;;4.10;99.90;;;;;;4954839;28;20599;-73
2022/04/01 14:27:51;;;;;;;19.83;18.33;;;4.10;99.90;;;;;;4948302;28;20199;-71
2022/04/01 14:30:18;;;;;;;19.07;17.57;;;3.90;99.90;;;;;;4974906;28;20189;-74
2022/04/01 14:32:54;;;;;;;23.03;21.13;;;3.60;99.90;;;;;;4974828;28;20185;-72
2022/04/01 14:35:23;;;;;;;20.03;18.53;;;3.40;99.90;;;;;;4974663;28;20686;-72
2022/04/01 14:37:49;;;;;;;14.60;13.33;;;3.30;99.90;;;;;;4957187;28;20284;-72
2022/04/01 14:40:16;;;;;;;14.23;12.93;;;3.10;99.90;;;;;;4957158;28;20232;-72
2022/04/01 14:42:43;;;;;;;15.07;13.67;;;3.10;99.90;;;;;;4974702;28;20181;-72
2022/04/01 14:45:09;;;;;;;15.63;14.10;;;3.00;99.90;;;;;;4957639;28;20181;-72
2022/04/01 14:47:35;;;;;;;16.60;14.97;;;2.90;99.90;;;;;;4956981;28;20181;-72
2022/04/01 14:50:01;;;;;;;20.70;17.13;;;2.90;99.90;;;;;;4974870;28;20545;-72
2022/04/01 14:52:28;;;;;;;16.03;14.33;;;2.90;99.90;;;;;;4956635;28;20200;-72
2022/04/01 14:54:54;;;;;;;18.93;16.90;;;2.90;99.90;;;;;;4957298;28;20189;-72
2022/04/01 14:57:21;;;;;;;16.40;14.60;;;3.00;99.90;;;;;;4952143;28;20208;-72
2022/04/01 14:59:48;;;;;;;17.77;15.97;;;2.90;99.90;;;;;;4972764;28;20216;-73
2022/04/01 15:02:15;;;;;;;17.17;15.37;;;3.00;99.90;;;;;;4956848;28;20215;-73
2022/04/01 15:04:41;;;;;;;17.27;15.53;;;3.00;99.90;;;;;;4957067;28;20185;-73
2022/04/01 15:07:07;;;;;;;17.37;15.57;;;3.10;99.90;;;;;;4974260;28;20201;-72
2022/04/01 15:09:37;;;;;;;15.87;14.37;;;3.10;99.90;;;;;;4956756;28;20188;-72
2022/04/01 15:12:04;;;;;;;15.80;14.30;;;3.10;99.90;;;;;;4955520;28;20228;-72
2022/04/01 15:14:30;;;;;;;17.67;14.43;;;3.10;99.90;;;;;;4978170;23;20185;-76
2022/04/01 15:16:55;;;;;;;18.03;16.23;;;3.00;99.90;;;;;;4971533;28;20295;-77
2022/04/01 15:19:21;;;;;;;18.50;15.77;;;3.00;99.90;;;;;;4980917;28;20207;-76
2022/04/01 15:21:47;;;;;;;17.60;15.67;;;2.90;99.90;;;;;;4955473;28;20844;-77
2022/04/01 15:24:14;;;;;;;16.10;14.40;;;2.90;99.90;;;;;;4956008;28;20181;-76
2022/04/01 15:26:40;;;;;;;17.27;15.47;;;3.00;99.90;;;;;;4957012;28;20283;-77
2022/04/01 15:29:08;;;;;;;17.83;15.60;;;2.90;99.90;;;;;;4974021;28;20189;-77
2022/04/01 15:31:34;;;;;;;18.57;16.57;;;2.90;99.90;;;;;;4957546;28;20196;-77
2022/04/01 15:33:59;;;;;;;19.40;16.70;;;3.00;99.90;;;;;;4973984;28;20337;-77
2022/04/01 15:36:48;;;;;;;17.97;15.17;;;3.00;99.90;;;;;;4976209;28;20300;-76
2022/04/01 15:39:15;;;;;;;19.23;16.00;;;2.90;99.90;;;;;;4993949;28;20212;-77
2022/04/01 15:41:41;;;;;;;18.13;15.13;;;2.90;99.90;;;;;;4974586;28;20272;-76
2022/04/01 15:44:13;;;;;;;23.87;19.73;;;2.90;99.90;;;;;;4974519;28;20604;-77
2022/04/01 15:46:42;;;;;;;26.53;21.03;;;2.80;99.90;;;;;;4956967;28;20232;-77
2022/04/01 15:49:08;;;;;;;23.47;21.07;;;2.90;99.90;;;;;;4956452;28;20264;-77
2022/04/01 15:51:35;;;;;;;19.33;16.93;;;2.90;99.90;;;;;;4973960;28;20184;-76
2022/04/01 15:54:00;;;;;;;17.97;15.90;;;2.90;99.90;;;;;;4974251;28;20188;-77
2022/04/01 15:56:26;;;;;;;18.37;16.33;;;2.80;99.90;;;;;;4973891;28;20208;-77
2022/04/01 15:58:52;;;;;;;20.47;16.87;;;2.80;99.90;;;;;;4973720;28;20188;-77
2022/04/01 16:01:26;;;;;;;18.73;16.27;;;2.90;99.90;;;;;;4973809;28;20212;-76
2022/04/01 16:03:57;;;;;;;19.03;16.07;;;2.90;99.90;;;;;;4956453;28;20187;-76